Time;durP1;ratioP1;P1;durP2;ratioP2;P2;SDS_P1;SDS_P2;PMS_P1;PMS_P2;Temp;Humidity;BMP_temperature;BMP_pressure;BME280_temperature;BME280_humidity;BME280_pressure;Samples;Min_cycle;Max_cycle;Signal;HPM_P1;HPM_P2
2022/05/24 00:02:20;;;;;;;2.40;2.20;;;17.40;99.90;;;;;;4938768;29;20293;-71
2022/05/24 00:04:46;;;;;;;3.83;2.17;;;17.30;99.90;;;;;;4922557;29;20622;-71
2022/05/24 00:07:12;;;;;;;2.40;2.17;;;17.30;99.90;;;;;;4938660;29;20201;-71
2022/05/24 00:09:38;;;;;;;3.42;2.38;;;17.30;99.90;;;;;;4939434;29;20529;-71
2022/05/24 00:12:04;;;;;;;3.75;2.35;;;17.20;99.90;;;;;;4921239;29;20183;-70
2022/05/24 00:17:14;;;;;;;3.92;2.70;;;17.30;99.90;;;;;;4938811;29;20222;-70
2022/05/24 00:19:40;;;;;;;2.35;2.25;;;17.40;99.90;;;;;;4921399;29;20190;-70
2022/05/24 00:22:05;;;;;;;2.95;2.20;;;17.30;99.90;;;;;;4921130;29;20174;-70
2022/05/24 00:24:31;;;;;;;2.45;2.25;;;17.40;99.90;;;;;;4921183;29;20197;-70
2022/05/24 00:26:56;;;;;;;2.45;2.30;;;17.40;99.90;;;;;;4937261;29;20186;-70
2022/05/24 00:29:22;;;;;;;2.45;2.10;;;17.40;99.90;;;;;;4937919;29;20205;-70
2022/05/24 00:31:47;;;;;;;3.00;2.40;;;17.50;99.90;;;;;;4920996;29;20186;-70
2022/05/24 00:34:13;;;;;;;3.08;2.33;;;17.40;99.90;;;;;;4921122;29;20213;-70
2022/05/24 00:36:39;;;;;;;2.63;2.40;;;17.40;99.90;;;;;;4938242;29;20185;-70
2022/05/24 00:39:04;;;;;;;2.60;2.40;;;17.40;99.90;;;;;;4920722;29;20274;-71
2022/05/24 00:41:39;;;;;;;2.40;2.20;;;17.40;99.90;;;;;;4920763;29;20206;-71
2022/05/24 00:44:33;;;;;;;2.60;2.15;;;17.50;99.90;;;;;;4937681;29;20280;-71
2022/05/24 00:47:05;;;;;;;2.40;2.30;;;17.40;99.90;;;;;;4928681;29;20249;-71
2022/05/24 00:49:39;;;;;;;2.92;2.20;;;17.40;99.90;;;;;;4921583;29;20174;-71
2022/05/24 00:52:14;;;;;;;4.32;2.80;;;17.40;99.90;;;;;;4920562;29;20310;-70
2022/05/24 00:54:42;;;;;;;2.30;2.10;;;17.30;99.90;;;;;;4921109;29;20630;-70
2022/05/24 00:57:20;;;;;;;2.65;2.42;;;17.30;99.90;;;;;;4920503;29;20178;-70
2022/05/24 01:00:03;;;;;;;2.88;2.50;;;17.40;99.90;;;;;;4921154;29;20221;-71
2022/05/24 01:02:28;;;;;;;2.60;2.40;;;17.30;99.90;;;;;;4920575;29;20338;-71
2022/05/24 01:04:54;;;;;;;3.58;2.50;;;17.30;99.90;;;;;;4920701;29;20198;-71
2022/05/24 01:07:20;;;;;;;2.80;2.60;;;17.20;99.90;;;;;;4920422;29;20182;-71
2022/05/24 01:10:00;;;;;;;3.78;2.50;;;17.20;99.90;;;;;;4921390;29;20202;-71
2022/05/24 01:12:33;;;;;;;2.92;2.72;;;17.10;99.90;;;;;;4937487;29;20198;-71
2022/05/24 01:15:04;;;;;;;3.45;2.60;;;17.00;99.90;;;;;;4921308;29;20171;-71
2022/05/24 01:17:30;;;;;;;3.72;3.05;;;17.00;99.90;;;;;;4920171;29;20191;-71
2022/05/24 01:19:56;;;;;;;4.00;2.65;;;17.00;99.90;;;;;;4937835;29;20659;-71
2022/05/24 01:22:45;;;;;;;3.78;2.70;;;16.90;99.90;;;;;;4920309;29;20721;-70
2022/05/24 01:25:50;;;;;;;3.33;3.05;;;16.90;99.90;;;;;;4920071;29;20175;-70
2022/05/24 01:28:50;;;;;;;3.20;3.00;;;16.90;99.90;;;;;;4919295;29;20187;-70
2022/05/24 01:31:17;;;;;;;5.72;3.20;;;16.70;99.90;;;;;;4914298;29;20194;-70
2022/05/24 01:36:31;;;;;;;18.35;4.20;;;16.60;99.90;;;;;;4937535;29;20586;-70
2022/05/24 01:39:04;;;;;;;9.60;3.85;;;16.60;99.90;;;;;;4919536;29;20205;-70
2022/05/24 01:41:39;;;;;;;5.25;3.33;;;16.50;99.90;;;;;;4936935;29;20249;-70
2022/05/24 01:44:06;;;;;;;4.00;3.20;;;16.50;99.90;;;;;;4936687;29;20292;-70
2022/05/24 01:46:40;;;;;;;3.65;3.35;;;16.50;99.90;;;;;;4919889;29;20218;-70
2022/05/24 01:49:28;;;;;;;4.18;3.50;;;16.40;99.90;;;;;;4919848;29;20197;-70
2022/05/24 01:52:01;;;;;;;5.78;3.70;;;16.40;99.90;;;;;;4920406;29;20175;-70
2022/05/24 01:54:29;;;;;;;3.88;3.50;;;16.40;99.90;;;;;;4920727;29;20181;-70
2022/05/24 01:56:54;;;;;;;4.10;3.58;;;16.40;99.90;;;;;;4920268;29;20182;-70
2022/05/24 01:59:21;;;;;;;4.82;3.40;;;16.40;99.90;;;;;;4936440;29;20184;-70
2022/05/24 02:01:51;;;;;;;3.70;3.50;;;16.40;99.90;;;;;;4919660;29;20213;-70
2022/05/24 02:04:18;;;;;;;3.80;3.50;;;16.40;99.90;;;;;;4936322;29;20682;-70
2022/05/24 02:06:44;;;;;;;5.00;3.47;;;16.50;99.90;;;;;;4936232;29;20185;-70
2022/05/24 02:09:11;;;;;;;4.30;3.90;;;16.40;99.90;;;;;;4919300;29;20186;-70
2022/05/24 02:11:37;;;;;;;3.50;3.20;;;16.40;99.90;;;;;;4919353;29;20189;-71
2022/05/24 02:14:23;;;;;;;3.70;3.40;;;16.30;99.90;;;;;;4919448;29;20209;-71
2022/05/24 02:17:06;;;;;;;3.85;3.55;;;16.30;99.90;;;;;;4936621;29;20174;-71
2022/05/24 02:19:34;;;;;;;4.43;3.55;;;16.30;99.90;;;;;;4936504;29;20174;-71
2022/05/24 02:22:04;;;;;;;3.45;3.20;;;16.30;99.90;;;;;;4936042;29;20210;-71
2022/05/24 02:24:30;;;;;;;3.70;3.42;;;16.30;99.90;;;;;;4919987;29;20506;-71
2022/05/24 02:26:57;;;;;;;5.55;3.55;;;16.30;99.90;;;;;;4919230;29;20245;-71
2022/05/24 02:29:23;;;;;;;3.78;3.47;;;16.20;99.90;;;;;;4919148;29;20620;-71
2022/05/24 02:31:50;;;;;;;4.22;3.72;;;16.20;99.90;;;;;;4936129;29;20182;-71
2022/05/24 02:34:15;;;;;;;5.32;3.60;;;16.10;99.90;;;;;;4936253;29;20210;-71
2022/05/24 02:36:42;;;;;;;4.80;3.65;;;16.00;99.90;;;;;;4936411;29;20178;-71
2022/05/24 02:39:08;;;;;;;3.72;3.28;;;16.00;99.90;;;;;;4919706;29;20220;-71
2022/05/24 02:41:36;;;;;;;3.63;3.33;;;16.00;99.90;;;;;;4918912;29;20261;-71
2022/05/24 02:44:08;;;;;;;3.67;3.20;;;16.00;99.90;;;;;;4919017;29;20202;-71
2022/05/24 02:46:36;;;;;;;3.60;3.30;;;16.00;99.90;;;;;;4936317;29;20167;-71
2022/05/24 02:49:02;;;;;;;3.22;3.00;;;16.00;99.90;;;;;;4919710;29;20201;-71
2022/05/24 02:51:28;;;;;;;3.70;3.40;;;16.00;99.90;;;;;;4921467;29;20294;-71
2022/05/24 02:53:54;;;;;;;4.95;3.28;;;16.00;99.90;;;;;;4922711;29;20238;-71
2022/05/24 02:56:20;;;;;;;3.63;3.30;;;16.10;99.90;;;;;;4922636;29;20202;-71
2022/05/24 02:58:46;;;;;;;4.38;3.22;;;16.10;99.90;;;;;;4922961;29;20186;-71
2022/05/24 03:01:15;;;;;;;5.30;3.67;;;16.20;99.90;;;;;;4922600;29;20581;-71
2022/05/24 03:03:41;;;;;;;3.75;3.45;;;16.10;99.90;;;;;;4922924;29;20254;-70
2022/05/24 03:06:07;;;;;;;3.60;3.30;;;16.20;99.90;;;;;;4922568;29;20174;-70
2022/05/24 03:11:16;;;;;;;3.70;3.40;;;16.20;99.90;;;;;;4939756;29;20170;-70
2022/05/24 03:16:26;;;;;;;6.82;3.70;;;16.10;99.90;;;;;;4939382;29;20235;-70
2022/05/24 03:18:52;;;;;;;7.28;3.38;;;16.00;99.90;;;;;;4939402;29;20178;-70
2022/05/24 03:21:18;;;;;;;3.88;3.58;;;16.00;99.90;;;;;;4922379;29;20214;-70
2022/05/24 03:23:43;;;;;;;4.35;3.95;;;15.90;99.90;;;;;;4922115;29;20209;-70
2022/05/24 03:26:11;;;;;;;3.97;3.67;;;15.90;99.90;;;;;;4922191;29;20178;-70
2022/05/24 03:28:37;;;;;;;4.18;3.78;;;15.80;99.90;;;;;;4922312;29;20193;-70
2022/05/24 03:31:05;;;;;;;4.93;3.90;;;15.70;99.90;;;;;;4922129;29;20186;-70
2022/05/24 03:33:30;;;;;;;8.00;3.90;;;15.70;99.90;;;;;;4922051;29;20338;-70
2022/05/24 03:35:56;;;;;;;4.75;3.90;;;15.60;99.90;;;;;;4922282;29;20196;-70
2022/05/24 03:38:22;;;;;;;7.05;4.15;;;15.60;99.90;;;;;;4922012;29;20206;-70
2022/05/24 03:40:47;;;;;;;4.90;3.83;;;15.60;99.90;;;;;;4922110;29;20209;-70
2022/05/24 03:43:15;;;;;;;5.53;3.72;;;15.70;99.90;;;;;;4921868;29;20213;-70
2022/05/24 03:45:41;;;;;;;3.50;3.30;;;15.70;99.90;;;;;;4921835;29;20178;-70
2022/05/24 03:48:07;;;;;;;3.50;3.20;;;15.80;99.90;;;;;;4922825;29;20179;-70
2022/05/24 03:50:33;;;;;;;4.03;3.03;;;15.80;99.90;;;;;;4939326;29;20193;-70
2022/05/24 03:52:58;;;;;;;5.53;3.50;;;15.90;99.90;;;;;;4938958;29;20205;-70
2022/05/24 03:55:24;;;;;;;13.20;3.88;;;16.00;99.90;;;;;;4938956;29;20178;-70
2022/05/24 03:58:02;;;;;;;8.23;3.47;;;15.90;99.90;;;;;;4921524;29;20270;-70
2022/05/24 04:00:37;;;;;;;3.95;3.40;;;16.00;99.90;;;;;;4922344;29;20205;-70
2022/05/24 04:03:04;;;;;;;7.00;3.30;;;16.10;99.90;;;;;;4920274;29;20194;-70
2022/05/24 04:05:30;;;;;;;7.57;3.38;;;16.20;99.90;;;;;;4938577;29;20178;-70
2022/05/24 04:07:57;;;;;;;4.53;3.67;;;16.30;99.90;;;;;;4938761;29;20175;-72
2022/05/24 04:10:22;;;;;;;4.50;3.15;;;16.30;99.90;;;;;;4921428;29;20190;-72
2022/05/24 04:12:48;;;;;;;3.50;3.20;;;16.30;99.90;;;;;;4921547;29;20217;-71
2022/05/24 04:15:15;;;;;;;4.78;3.03;;;16.30;99.90;;;;;;4938372;29;20183;-72
2022/05/24 04:17:41;;;;;;;5.30;3.28;;;16.30;99.90;;;;;;4938307;29;20278;-72
2022/05/24 04:20:08;;;;;;;4.07;3.63;;;16.30;99.90;;;;;;4938659;29;20202;-71
2022/05/24 04:22:35;;;;;;;4.93;3.65;;;16.10;99.90;;;;;;4922454;29;20288;-72
2022/05/24 04:25:01;;;;;;;4.15;3.45;;;16.10;99.90;;;;;;4921109;29;20270;-72
2022/05/24 04:27:27;;;;;;;3.50;3.20;;;16.20;99.90;;;;;;4921512;29;20210;-71
2022/05/24 04:29:53;;;;;;;4.97;3.70;;;16.20;99.90;;;;;;4922162;29;20204;-72
2022/05/24 04:32:19;;;;;;;4.30;3.58;;;16.40;99.90;;;;;;4920797;29;20697;-72
2022/05/24 04:34:45;;;;;;;3.55;3.35;;;16.50;99.90;;;;;;4921875;29;20186;-72
2022/05/24 04:37:11;;;;;;;7.72;3.35;;;16.50;99.90;;;;;;4921020;29;20277;-71
2022/05/24 04:39:36;;;;;;;6.28;3.40;;;16.60;99.90;;;;;;4921526;29;20273;-71
2022/05/24 04:44:50;;;;;;;5.93;3.35;;;16.80;99.90;;;;;;4938323;29;20205;-79
2022/05/24 04:47:16;;;;;;;9.43;3.13;;;16.90;99.90;;;;;;4921028;29;20209;-71
2022/05/24 04:49:43;;;;;;;6.10;2.83;;;17.00;99.90;;;;;;4921501;29;20186;-72
2022/05/24 04:52:10;;;;;;;5.93;2.63;;;17.10;99.90;;;;;;4920626;29;20186;-71
2022/05/24 04:54:41;;;;;;;6.43;2.88;;;17.20;99.90;;;;;;4920658;29;20209;-71
2022/05/24 04:57:07;;;;;;;10.38;3.10;;;17.30;99.90;;;;;;4921692;29;20179;-71
2022/05/24 04:59:33;;;;;;;4.15;2.58;;;17.40;99.90;;;;;;4920449;29;20182;-71
2022/05/24 05:01:59;;;;;;;2.90;2.50;;;17.40;99.90;;;;;;4937684;29;20213;-71
2022/05/24 05:04:25;;;;;;;3.22;2.70;;;17.40;99.90;;;;;;4937493;29;20545;-71
2022/05/24 05:06:51;;;;;;;4.35;2.47;;;17.40;99.90;;;;;;4920645;29;20185;-71
2022/05/24 05:09:19;;;;;;;6.90;2.55;;;17.40;99.90;;;;;;4920578;29;20175;-72
2022/05/24 05:11:44;;;;;;;4.35;2.90;;;17.60;99.90;;;;;;4921002;29;20193;-72
2022/05/24 05:14:11;;;;;;;7.35;2.97;;;17.70;99.90;;;;;;4919810;29;20303;-71
2022/05/24 05:16:37;;;;;;;4.65;2.70;;;17.60;99.90;;;;;;4920176;29;20190;-72
2022/05/24 05:19:05;;;;;;;5.70;3.10;;;17.50;99.90;;;;;;4920931;29;20193;-72
2022/05/24 05:21:33;;;;;;;4.53;2.72;;;17.60;99.90;;;;;;4920749;29;20566;-72
2022/05/24 05:23:59;;;;;;;3.50;2.40;;;17.60;99.90;;;;;;4920789;29;20201;-72
2022/05/24 05:26:25;;;;;;;4.45;2.75;;;17.70;99.90;;;;;;4937030;29;20229;-72
2022/05/24 05:32:03;;;;;;;2.97;2.70;;;18.20;99.90;;;;;;4937056;29;20169;-71
2022/05/24 05:34:29;;;;;;;2.92;2.50;;;18.30;99.90;;;;;;4936832;29;20182;-71
2022/05/24 05:36:54;;;;;;;10.27;3.05;;;18.40;99.90;;;;;;4920011;29;20189;-72
2022/05/24 05:39:20;;;;;;;4.05;2.75;;;18.70;99.90;;;;;;4919661;29;20197;-72
2022/05/24 05:41:45;;;;;;;3.72;2.17;;;18.80;99.90;;;;;;4920008;29;20206;-72
2022/05/24 05:44:11;;;;;;;2.50;2.30;;;18.90;99.90;;;;;;4919667;29;20198;-72
2022/05/24 05:46:37;;;;;;;2.53;2.05;;;19.00;99.90;;;;;;4919932;29;20178;-72
2022/05/24 05:49:02;;;;;;;4.35;2.20;;;19.20;99.90;;;;;;4919801;29;20178;-72
2022/05/24 05:51:28;;;;;;;2.88;2.13;;;19.20;99.90;;;;;;4936577;29;20666;-72
2022/05/24 05:53:55;;;;;;;3.90;2.40;;;19.30;99.90;;;;;;4936769;29;20313;-71
2022/05/24 05:56:22;;;;;;;2.33;2.05;;;19.40;99.90;;;;;;4936592;29;20277;-71
2022/05/24 05:58:49;;;;;;;3.72;2.10;;;19.60;99.90;;;;;;4936773;29;20241;-72
2022/05/24 06:01:20;;;;;;;2.60;2.40;;;19.70;99.90;;;;;;4919671;29;20213;-72
2022/05/24 06:03:45;;;;;;;2.38;2.17;;;19.80;99.90;;;;;;4919633;29;20270;-71
2022/05/24 06:06:18;;;;;;;2.90;2.03;;;19.90;99.90;;;;;;4919438;29;20281;-77
2022/05/24 06:09:35;;;;;;;2.00;1.90;;;20.00;99.90;;;;;;4919447;29;20205;-72
2022/05/24 06:12:01;;;;;;;2.70;1.90;;;20.30;99.90;;;;;;4936489;29;20257;-71
2022/05/24 06:14:27;;;;;;;4.82;2.00;;;20.50;99.90;;;;;;4919368;29;20321;-72
2022/05/24 06:16:52;;;;;;;3.13;1.90;;;20.50;98.80;;;;;;4919261;29;20189;-72
2022/05/24 06:19:18;;;;;;;4.63;2.20;;;20.30;99.30;;;;;;4919139;29;20602;-71
2022/05/24 06:21:44;;;;;;;3.70;1.95;;;20.00;99.60;;;;;;4919436;29;20217;-71
2022/05/24 06:24:10;;;;;;;4.05;2.00;;;19.80;99.30;;;;;;4918769;29;20194;-71
2022/05/24 06:26:36;;;;;;;3.00;1.90;;;19.50;99.90;;;;;;4918471;29;20535;-71
2022/05/24 06:29:04;;;;;;;2.65;1.90;;;19.20;99.90;;;;;;4919431;29;20642;-71
2022/05/24 06:31:29;;;;;;;1.92;1.80;;;19.00;99.90;;;;;;4936160;29;20182;-71
2022/05/24 06:33:55;;;;;;;1.95;1.73;;;18.80;99.90;;;;;;4919144;29;20717;-71
2022/05/24 06:36:20;;;;;;;5.47;2.30;;;18.80;99.90;;;;;;4936386;29;20186;-71
2022/05/24 06:38:46;;;;;;;5.03;2.17;;;18.80;99.90;;;;;;4919257;29;20229;-71
2022/05/24 06:41:11;;;;;;;2.65;1.90;;;18.80;99.90;;;;;;4919011;29;20205;-71
2022/05/24 06:43:37;;;;;;;5.88;2.00;;;18.80;99.90;;;;;;4919060;29;20206;-71
2022/05/24 06:46:10;;;;;;;2.97;1.98;;;19.00;99.90;;;;;;4919245;29;20654;-71
2022/05/24 06:48:37;;;;;;;2.35;1.90;;;19.30;99.90;;;;;;4918939;29;20199;-71
2022/05/24 06:51:17;;;;;;;3.30;2.15;;;19.70;99.90;;;;;;4919826;29;20186;-71
2022/05/24 06:53:45;;;;;;;5.45;2.20;;;20.00;99.90;;;;;;4919283;29;20232;-71
2022/05/24 06:56:11;;;;;;;3.75;2.00;;;20.10;99.50;;;;;;4936699;29;20213;-71
2022/05/24 06:58:37;;;;;;;2.20;2.00;;;20.10;99.10;;;;;;4919166;29;20217;-71
2022/05/24 07:03:49;;;;;;;3.90;2.17;;;19.90;99.50;;;;;;4936312;29;20210;-71
2022/05/24 07:06:15;;;;;;;3.95;2.13;;;20.10;99.50;;;;;;4919159;29;20549;-71
2022/05/24 07:08:42;;;;;;;3.42;2.30;;;20.30;99.80;;;;;;4935798;29;20650;-71
2022/05/24 07:11:08;;;;;;;7.25;2.78;;;20.50;99.20;;;;;;4918805;29;20210;-71
2022/05/24 07:13:34;;;;;;;4.07;2.55;;;20.70;98.50;;;;;;4918677;29;20226;-71
2022/05/24 07:15:59;;;;;;;8.20;2.50;;;20.90;97.70;;;;;;4919057;29;20265;-71
2022/05/24 07:18:26;;;;;;;2.42;2.17;;;21.00;97.70;;;;;;4918647;29;20275;-71
2022/05/24 07:20:52;;;;;;;3.90;2.20;;;21.00;98.10;;;;;;4936442;29;20214;-71
2022/05/24 07:23:20;;;;;;;2.30;2.20;;;20.90;97.40;;;;;;4918541;29;20201;-71
2022/05/24 07:25:47;;;;;;;2.50;2.10;;;20.70;97.20;;;;;;4918938;29;20195;-71
2022/05/24 07:28:18;;;;;;;3.25;2.20;;;20.50;97.20;;;;;;4918605;29;20178;-71
2022/05/24 07:30:44;;;;;;;5.15;2.47;;;20.50;98.50;;;;;;4935792;29;20167;-71
2022/05/24 07:33:10;;;;;;;6.30;2.40;;;20.40;97.80;;;;;;4918509;29;20206;-71
2022/05/24 07:35:37;;;;;;;3.97;2.17;;;20.50;97.80;;;;;;4935694;29;20182;-71
2022/05/24 07:38:09;;;;;;;4.47;2.08;;;20.80;97.30;;;;;;4921264;29;20334;-71
2022/05/24 07:46:08;;;;;;;2.58;1.98;;;20.80;93.30;;;;;;4939409;29;20221;-71
2022/05/24 07:48:34;;;;;;;2.33;1.73;;;20.60;94.40;;;;;;4939356;29;20190;-71
2022/05/24 07:51:00;;;;;;;3.95;1.95;;;20.50;94.50;;;;;;4939037;29;20178;-71
2022/05/24 07:53:26;;;;;;;1.73;1.63;;;20.50;95.10;;;;;;4938779;29;20214;-71
2022/05/24 07:55:54;;;;;;;3.47;1.90;;;20.50;93.90;;;;;;4922376;29;20182;-71
2022/05/24 07:58:20;;;;;;;3.25;1.40;;;20.70;93.60;;;;;;4938634;29;20185;-71
2022/05/24 08:00:46;;;;;;;2.47;1.77;;;20.90;94.10;;;;;;4938833;29;20639;-71
2022/05/24 08:03:12;;;;;;;1.63;1.52;;;21.30;93.70;;;;;;4939018;29;20233;-71
2022/05/24 08:05:39;;;;;;;2.72;1.50;;;21.90;92.80;;;;;;4938801;29;20182;-72
2022/05/24 08:08:07;;;;;;;2.90;1.40;;;22.40;91.80;;;;;;4938457;29;20201;-72
2022/05/24 08:10:34;;;;;;;2.17;1.85;;;22.70;90.10;;;;;;4921484;29;20182;-72
2022/05/24 08:13:07;;;;;;;1.83;1.50;;;22.40;87.50;;;;;;4922015;29;20209;-72
2022/05/24 08:15:32;;;;;;;3.20;1.63;;;22.50;90.10;;;;;;4938454;29;20216;-72
2022/05/24 08:17:59;;;;;;;1.75;1.50;;;22.50;90.10;;;;;;4921572;29;20288;-72
2022/05/24 08:20:26;;;;;;;2.17;1.88;;;22.60;86.10;;;;;;4921150;29;20685;-72
2022/05/24 08:22:52;;;;;;;2.40;1.50;;;22.60;84.90;;;;;;4922270;29;20300;-71
2022/05/24 08:25:17;;;;;;;3.00;2.75;;;22.50;84.90;;;;;;4921742;29;20214;-71
2022/05/24 08:27:44;;;;;;;7.13;1.50;;;22.20;84.10;;;;;;4921384;29;20190;-71
2022/05/24 08:30:13;;;;;;;6.75;1.75;;;22.10;85.70;;;;;;4938396;29;20182;-71
2022/05/24 08:32:39;;;;;;;2.28;1.63;;;21.90;86.00;;;;;;4921786;29;20289;-71
2022/05/24 08:35:07;;;;;;;4.15;1.65;;;21.80;87.10;;;;;;4920955;29;20192;-71
2022/05/24 08:37:32;;;;;;;12.52;1.95;;;21.50;89.70;;;;;;4921203;29;20186;-71
2022/05/24 08:39:59;;;;;;;6.07;2.28;;;20.90;94.20;;;;;;4920934;29;20174;-71
2022/05/24 08:42:42;;;;;;;6.18;2.10;;;20.10;99.00;;;;;;4921595;29;20225;-71
2022/05/24 08:50:56;;;;;;;1.25;1.10;;;18.90;99.90;;;;;;4938265;29;20173;-71
2022/05/24 08:53:35;;;;;;;4.43;1.00;;;19.20;99.90;;;;;;4937822;29;20201;-71
2022/05/24 08:56:05;;;;;;;1.48;1.00;;;19.70;99.90;;;;;;4921472;29;20213;-71
2022/05/24 08:58:36;;;;;;;3.17;1.30;;;20.00;99.90;;;;;;4920527;29;20569;-71
2022/05/24 09:01:03;;;;;;;2.08;1.20;;;20.50;99.90;;;;;;4937556;29;20187;-71
2022/05/24 09:03:28;;;;;;;0.93;0.90;;;21.10;99.90;;;;;;4921287;29;20198;-71
2022/05/24 09:06:35;;;;;;;1.65;0.90;;;21.40;99.90;;;;;;4920430;29;20182;-71
2022/05/24 09:09:25;;;;;;;0.75;0.75;;;21.70;99.90;;;;;;4938036;29;20170;-71
2022/05/24 09:12:14;;;;;;;1.20;0.68;;;21.70;98.90;;;;;;4920350;29;20210;-71
2022/05/24 09:15:07;;;;;;;1.52;0.70;;;21.50;97.80;;;;;;4920855;29;20175;-71
2022/05/24 09:17:48;;;;;;;1.13;0.80;;;21.30;95.60;;;;;;4921059;29;20170;-71
2022/05/24 09:20:28;;;;;;;1.52;0.60;;;21.20;95.50;;;;;;4920079;29;20548;-71
2022/05/24 09:23:07;;;;;;;0.85;0.70;;;21.40;95.50;;;;;;4921026;29;20206;-71
2022/05/24 09:25:33;;;;;;;1.05;0.55;;;21.40;93.90;;;;;;4920950;29;20261;-71
2022/05/24 09:27:59;;;;;;;1.63;0.73;;;21.40;93.90;;;;;;4920031;29;20317;-71
2022/05/24 09:30:35;;;;;;;0.77;0.77;;;21.30;93.40;;;;;;4936983;29;20179;-71
2022/05/24 09:33:22;;;;;;;2.58;0.82;;;21.30;94.50;;;;;;4919948;29;20670;-71
2022/05/24 09:35:51;;;;;;;2.95;0.60;;;21.20;92.50;;;;;;4936855;29;20523;-71
2022/05/24 09:38:22;;;;;;;2.00;0.55;;;21.40;92.90;;;;;;4920818;29;20194;-71
2022/05/24 09:40:54;;;;;;;4.28;0.90;;;21.50;91.40;;;;;;4920580;29;20559;-71
2022/05/24 09:43:26;;;;;;;0.90;0.80;;;21.30;90.80;;;;;;4936770;29;20613;-71
2022/05/24 09:45:59;;;;;;;0.68;0.65;;;21.20;91.40;;;;;;4920645;29;20202;-71
2022/05/24 09:48:28;;;;;;;0.45;0.43;;;20.90;90.50;;;;;;4919752;29;20178;-71
2022/05/24 09:50:57;;;;;;;1.10;0.70;;;20.80;90.00;;;;;;4920100;29;20213;-71
2022/05/24 09:53:26;;;;;;;5.75;1.48;;;21.20;90.70;;;;;;4919365;29;20202;-71
2022/05/24 09:55:52;;;;;;;1.20;1.10;;;21.50;89.00;;;;;;4920387;29;20205;-71
2022/05/24 09:58:25;;;;;;;2.47;0.88;;;21.60;83.70;;;;;;4936501;29;20580;-71
2022/05/24 10:01:13;;;;;;;1.02;0.90;;;21.80;83.50;;;;;;4919526;29;20210;-71
2022/05/24 10:03:47;;;;;;;0.70;0.70;;;21.90;81.90;;;;;;4920208;29;20289;-71
2022/05/24 10:06:24;;;;;;;2.13;0.80;;;21.90;81.60;;;;;;4919439;29;20185;-71
2022/05/24 10:09:11;;;;;;;1.75;0.75;;;21.90;83.20;;;;;;4936655;29;20173;-71
2022/05/24 10:11:43;;;;;;;2.60;1.13;;;22.20;83.00;;;;;;4919069;29;20309;-71
2022/05/24 10:14:17;;;;;;;1.33;0.70;;;22.50;81.30;;;;;;4920112;29;20205;-71
2022/05/24 10:17:11;;;;;;;0.93;0.60;;;22.60;77.40;;;;;;4936607;29;20181;-71
2022/05/24 10:20:02;;;;;;;0.98;0.80;;;21.90;78.20;;;;;;4932649;29;20270;-71
2022/05/24 10:22:59;;;;;;;0.80;0.60;;;21.60;81.30;;;;;;4919977;29;20301;-71
2022/05/24 10:26:04;;;;;;;1.80;0.80;;;21.30;80.80;;;;;;4937029;29;20196;-71
2022/05/24 10:29:16;;;;;;;0.80;0.80;;;21.20;80.00;;;;;;4881363;29;20216;-71
2022/05/24 10:31:54;;;;;;;2.50;0.85;;;21.20;80.60;;;;;;4912118;29;20222;-71
2022/05/24 10:38:19;;;;;;;2.22;0.70;;;20.70;80.70;;;;;;4936520;29;20182;-71
2022/05/24 10:41:15;;;;;;;5.15;1.13;;;20.40;80.90;;;;;;4905320;29;20206;-71
2022/05/24 10:43:58;;;;;;;1.65;0.57;;;20.30;81.80;;;;;;4919424;29;20209;-71
2022/05/24 10:46:45;;;;;;;1.85;0.60;;;20.30;80.50;;;;;;4919080;29;20174;-71
2022/05/24 10:49:26;;;;;;;5.05;1.00;;;20.20;80.40;;;;;;4919022;29;20185;-71
2022/05/24 10:52:11;;;;;;;2.13;0.65;;;20.30;82.90;;;;;;4936104;29;20154;-71
2022/05/24 10:54:45;;;;;;;2.53;0.70;;;20.50;81.80;;;;;;4936288;29;20571;-71
2022/05/24 10:57:22;;;;;;;3.13;0.73;;;20.60;79.80;;;;;;4918928;29;20272;-71
2022/05/24 10:59:57;;;;;;;0.60;0.52;;;21.10;79.50;;;;;;4919767;29;20186;-71
2022/05/24 11:02:40;;;;;;;2.50;0.70;;;21.50;77.30;;;;;;4919317;29;20220;-71
2022/05/24 11:05:29;;;;;;;0.85;0.60;;;22.00;73.00;;;;;;4936190;29;20619;-71
2022/05/24 11:08:17;;;;;;;1.05;0.50;;;22.40;71.90;;;;;;4920008;29;20182;-71
2022/05/24 11:10:46;;;;;;;2.03;0.57;;;22.70;70.30;;;;;;4919586;29;20571;-71
2022/05/24 11:13:15;;;;;;;2.17;0.80;;;23.20;70.10;;;;;;4922879;29;20233;-71
2022/05/24 11:15:45;;;;;;;2.28;0.60;;;23.40;66.50;;;;;;4923260;29;20197;-71
2022/05/24 11:18:21;;;;;;;3.85;0.57;;;23.20;64.80;;;;;;4922319;29;20202;-71
2022/05/24 11:21:07;;;;;;;7.00;1.30;;;23.10;66.50;;;;;;4922638;29;20202;-71
2022/05/24 11:23:45;;;;;;;2.15;0.70;;;22.60;68.50;;;;;;4922342;29;20692;-71
2022/05/24 11:26:18;;;;;;;2.00;0.68;;;22.20;67.20;;;;;;4923104;29;20583;-71
2022/05/24 11:28:47;;;;;;;0.80;0.65;;;21.70;67.60;;;;;;4939292;29;20253;-71
2022/05/24 11:31:35;;;;;;;0.70;0.70;;;21.30;67.50;;;;;;4922095;29;20221;-71
2022/05/24 11:34:03;;;;;;;5.10;0.80;;;21.50;68.70;;;;;;4921972;29;20202;-71
2022/05/24 11:36:44;;;;;;;3.60;0.90;;;21.70;69.50;;;;;;4922424;29;20193;-71
2022/05/24 11:39:32;;;;;;;1.80;0.65;;;21.70;68.00;;;;;;4922340;29;20206;-71
2022/05/24 11:42:20;;;;;;;1.77;0.50;;;21.70;67.20;;;;;;4921923;29;20206;-72
2022/05/24 11:44:46;;;;;;;13.73;1.40;;;21.70;67.20;;;;;;4939201;29;20178;-72
